METAR Data
IDs: Format: Raw Decoded Include TAF

Data at: 0757 UTC 11 Dec 2018

PASC 110753Z 05014KT 7SM OVC031 M27/M30 A2943 RMK AO2 SLP969 T12671300 $
PASC 110653Z 05014KT 5SM BR BKN023 M27/M29 A2943 RMK AO2 SLP970 I1000 T12671294 $
PASC 110553Z 05015KT 6SM BR FEW014 FEW030 M27/M29 A2944 RMK AO2 SLP972 I1000 I6/// T12671294 11261 21328 56010 $
PASC 110453Z 05015KT 6SM BR FEW014 SCT030 M27/M29 A2945 RMK AO2 SLP975 T12671294 $
PASC 110353Z 05013KT 5SM BR BKN031 M27/M29 A2946 RMK AO2 SLP978 T12671294 $
PASC 110253Z COR 05012KT 5SM BR BKN030 M27/M29 A2947 RMK AO2 SLP982 T13281339 56011 $
PASC 110153Z 05012KT 5SM BR BKN030 M27/M29 A2948 RMK AO2 SLP984 T12671294
PASC 110053Z 05013KT 6SM BR OVC031 M27/M29 A2949 RMK AO2 SLP989 T12671289
PASC 102353Z 05012KT 6SM BR OVC030 M26/M29 A2950 RMK AO2 SLP993 I6000 T12611289 11244 21261 58001
PASC 102300Z 05012KT 6SM BR OVC030 M26/M28 A2950 RMK AO2 T12561283
PASC 102253Z 05013KT 6SM BR BKN022 OVC030 M26/M28 A2950 RMK AO2 SLP992 T12561283
PASC 102153Z 05012KT 6SM BR BKN022 OVC030 M26/M28 A2951 RMK AO2 SLP995 T12561278
PASC 102053Z 05011KT 6SM BR OVC019 M25/M28 A2950 RMK AO2 SLP994 I3000 T12501278 50003
PASC 101953Z 05010KT 6SM BR OVC026 M25/M28 A2951 RMK AO2 SLP995 I1000 T12501278
PASC 101853Z 05011KT 6SM BR OVC025 M24/M27 A2950 RMK AO2 SLP992 T12441272
PASC 101800Z 05010KT 5SM BR FEW009 OVC026 M25/M27 A2950 RMK AO2 T12501272
PASC 101753Z 05010KT 6SM BR OVC026 M25/M27 A2950 RMK AO2 SLP991 60000 T12501272 11228 21250 51002
PASC 101653Z 04007KT 6SM BR OVC026 M24/M27 A2949 RMK AO2 SLP990 T12441272
PASC 101553Z 05010KT 8SM OVC028 M24/M27 A2949 RMK AO2 SLP990 T12441272
PASC 101453Z 05009KT 10SM BKN024 M24/M27 A2949 RMK AO2 SLP989 60000 T12441272 53000
PASC 101353Z 05008KT 10SM CLR M24/M27 A2949 RMK AO2 SNE05 SLP989 P0000 T12391272
PASC 101311Z 05008KT 10SM FEW023 M23/M27 A2949 RMK AO2 SNE05 P0000 T12331267
PASC 101253Z 05008KT 9SM -SN BKN023 M23/M27 A2949 RMK AO2 SLP988 P0000 T12331267
PASC 101153Z 05007KT 9SM -SN OVC044 M23/M26 A2949 RMK AO2 SLP987 P0000 60000 T12281261 11222 21228 51008
PASC 101111Z 05007KT 3SM -SN OVC027 M23/M26 A2949 RMK AO2 P0000 T12281261
PASC 101053Z 05007KT 5SM -SN OVC035 M23/M26 A2949 RMK AO2 SLP987 P0000 T12281256
PASC 101032Z 05007KT 9SM -SN BKN043 OVC075 M22/M26 A2948 RMK AO2 P0000 T12221256
PASC 100953Z 05008KT 3SM -SN OVC025 M23/M26 A2947 RMK AO2 SLP983 P0000 T12281256
PASC 100853Z 07007KT 9SM -SN FEW033 SCT045 OVC090 M22/M26 A2946 RMK AO2 SLP979 P0000 60000 T12221256 412221228 53008
PASC 100753Z 06011KT 6SM -SN BKN050 OVC070 M22/M26 A2945 RMK AO2 SNE00B18 SLP974 P0000 T12221256
PASC 100653Z 05012KT 3SM -SN BKN030 OVC095 M22/M26 A2944 RMK AO2 SLP971 P0000 T12221256
PASC 100553Z 06013KT 3SM -SN BR OVC041 M22/M25 A2944 RMK AO2 SLP971 P0000 60000 T12221250 11222 21222 51008
PASC 100453Z 06011KT 3SM -SN BR FEW017 BKN037 OVC060 M22/M26 A2944 RMK AO2 SLP970 P0000 T12221256
PASC 100353Z 05010KT 4SM -SN BR FEW017 BKN031 OVC070 M22/M25 A2942 RMK AO2 SLP965 P0000 T12221250
PASC 100253Z 05012KT 3SM -SN BR FEW010 OVC021 M22/M26 A2942 RMK AO2 SLP963 VIS LWR SW-N P0000 60000 T12221256 51004
PASC 100153Z 05013KT 3SM -SN BR FEW010 OVC026 M22/M26 A2942 RMK AO2 SLP963 VIS LWR SW-N P0000 T12221256
PASC 100053Z 06015KT 3SM -SN BR OVC028 M22/M25 A2941 RMK AO2 SLP961 VIS LWR W-NE P0000 T12221250
PASC 092353Z 05012KT 3SM -SN BR OVC017 M22/M26 A2940 RMK AO2 SLP959 VIS LWR W-NE P0000 60000 T12221256 11222 21228 51000
PASC 092253Z 05017KT 3SM R06/4500VP6000FT -SN BR OVC028 M22/M26 A2940 RMK AO2 SLP959 P0000 T12221256
PASC 092234Z 05015KT 5SM -SN BR OVC040 M22/M26 A2941 RMK AO2 P0000 T12221256
PASC 092153Z 04013KT 1 3/4SM -SN BR OVC024 M23/M26 A2941 RMK AO2 SLP961 P0000 T12281256
PASC 092053Z 04015KT 1 1/2SM -SN BR OVC022 M23/M26 A2940 RMK AO2 SLP959 P0000 60000 T12281256 58002
PASC 092040Z 04013KT 1 1/2SM -SN BR OVC026 M23/M26 A2941 RMK AO2 P0000 T12281256